createdAt,value
2022-10-05T00:00:01.869Z,7.86
2022-10-05T00:01:04.333Z,7.85
2022-10-05T00:02:06.838Z,7.89
2022-10-05T00:03:09.503Z,7.90
2022-10-05T00:04:12.022Z,7.87
2022-10-05T00:05:14.711Z,7.83
2022-10-05T00:06:17.395Z,7.84
2022-10-05T00:07:19.837Z,7.85
2022-10-05T00:08:22.277Z,7.81
2022-10-05T00:09:24.709Z,7.81
2022-10-05T00:10:27.444Z,7.85
2022-10-05T00:11:30.119Z,7.82
2022-10-05T00:12:32.561Z,7.84
2022-10-05T00:13:34.989Z,7.85
2022-10-05T00:14:37.427Z,7.93
2022-10-05T00:15:39.880Z,7.68
2022-10-05T00:16:42.645Z,7.91
2022-10-05T00:17:45.295Z,7.91
2022-10-05T00:18:47.737Z,8.05
2022-10-05T00:19:50.209Z,8.03
2022-10-05T00:20:52.881Z,7.99
2022-10-05T00:21:55.557Z,7.99
2022-10-05T00:22:58.064Z,8.04
2022-10-05T00:24:00.504Z,8.03
2022-10-05T00:25:02.935Z,8.03
2022-10-05T00:26:05.615Z,8.10
2022-10-05T00:27:08.078Z,8.08
2022-10-05T00:28:10.554Z,8.08
2022-10-05T00:29:13.049Z,8.12
2022-10-05T00:30:15.993Z,8.14
2022-10-05T00:31:18.519Z,8.12
2022-10-05T00:32:21.094Z,8.12
2022-10-05T00:33:23.528Z,8.12
2022-10-05T00:34:25.964Z,8.07
2022-10-05T00:35:28.398Z,8.00
2022-10-05T00:36:31.035Z,8.03
2022-10-05T00:37:33.545Z,8.08
2022-10-05T00:38:35.981Z,8.05
2022-10-05T00:39:38.431Z,8.00
2022-10-05T00:40:41.171Z,7.99
2022-10-05T00:41:43.816Z,7.97
2022-10-05T00:42:46.587Z,7.96
2022-10-05T00:43:49.025Z,7.95
2022-10-05T00:44:51.464Z,7.93
2022-10-05T00:45:53.967Z,7.97
2022-10-05T00:46:56.550Z,7.95
2022-10-05T00:47:59.032Z,7.98
2022-10-05T00:49:01.465Z,7.92
2022-10-05T00:50:03.902Z,7.86
2022-10-05T00:51:06.338Z,7.86
2022-10-05T00:52:08.770Z,7.82
2022-10-05T00:53:11.395Z,7.81
2022-10-05T00:54:18.212Z,7.82
2022-10-05T00:55:18.218Z,7.77
2022-10-05T00:56:20.976Z,7.73
2022-10-05T00:57:23.413Z,7.73
2022-10-05T00:58:25.895Z,7.69
2022-10-05T00:59:28.369Z,7.68
2022-10-05T01:00:30.909Z,7.65
2022-10-05T01:01:33.681Z,7.59
2022-10-05T01:02:37.238Z,7.58
2022-10-05T01:03:39.963Z,7.59
2022-10-05T01:04:42.409Z,7.60
2022-10-05T01:05:44.836Z,7.61
2022-10-05T01:06:47.873Z,7.59
2022-10-05T01:07:50.563Z,7.56
2022-10-05T01:08:53.084Z,7.51
2022-10-05T01:09:55.537Z,7.50
2022-10-05T01:10:58.287Z,7.49
2022-10-05T01:12:00.761Z,7.49
2022-10-05T01:13:03.193Z,7.47
2022-10-05T01:14:05.722Z,7.46
2022-10-05T01:15:08.171Z,7.45
2022-10-05T01:16:11.394Z,7.43
2022-10-05T01:17:14.070Z,7.45
2022-10-05T01:18:16.520Z,7.43
2022-10-05T01:19:19.040Z,7.40
2022-10-05T01:20:21.966Z,7.39
2022-10-05T01:21:24.454Z,7.36
2022-10-05T01:22:26.992Z,7.42
2022-10-05T01:23:29.475Z,7.40
2022-10-05T01:24:31.942Z,7.40
2022-10-05T01:25:34.391Z,7.39
2022-10-05T01:26:37.044Z,7.39
2022-10-05T01:27:39.572Z,7.36
2022-10-05T01:28:42.025Z,7.38
2022-10-05T01:29:44.500Z,7.38
2022-10-05T01:30:47.134Z,7.37
2022-10-05T01:31:49.857Z,7.30
2022-10-05T01:32:52.488Z,7.24
2022-10-05T01:33:54.962Z,7.25
2022-10-05T01:34:57.438Z,7.31
2022-10-05T01:35:59.885Z,7.27
2022-10-05T01:37:02.327Z,7.28
2022-10-05T01:38:04.774Z,7.31
2022-10-05T01:39:07.239Z,7.25
2022-10-05T01:40:10.244Z,7.29
2022-10-05T01:41:12.697Z,7.28
2022-10-05T01:42:15.146Z,7.29
2022-10-05T01:43:17.588Z,7.31
2022-10-05T01:44:20.055Z,7.31
2022-10-05T01:45:22.534Z,7.30
2022-10-05T01:46:25.292Z,7.31
2022-10-05T01:47:27.731Z,7.31
2022-10-05T01:48:30.183Z,7.24
2022-10-05T01:49:32.622Z,7.22
2022-10-05T01:50:35.390Z,7.19
2022-10-05T01:51:37.837Z,7.23
2022-10-05T01:52:40.687Z,7.22
2022-10-05T01:53:43.152Z,7.21
2022-10-05T01:54:45.593Z,7.24
2022-10-05T01:55:48.065Z,7.22
2022-10-05T01:56:50.850Z,7.21
2022-10-05T01:57:53.334Z,7.20
2022-10-05T01:58:55.772Z,7.15
2022-10-05T01:59:58.227Z,7.22
2022-10-05T02:01:00.949Z,7.21
2022-10-05T02:02:03.576Z,7.26
2022-10-05T02:03:06.386Z,7.24
2022-10-05T02:04:08.855Z,7.26
2022-10-05T02:05:11.301Z,7.23
2022-10-05T02:06:14.210Z,7.23
2022-10-05T02:07:16.656Z,7.24
2022-10-05T02:08:19.093Z,7.23
2022-10-05T02:09:21.542Z,7.20
2022-10-05T02:10:24.285Z,7.20
2022-10-05T02:11:26.759Z,7.22
2022-10-05T02:12:29.198Z,7.21
2022-10-05T02:13:31.643Z,7.27
2022-10-05T02:14:34.283Z,7.24
2022-10-05T02:15:36.735Z,7.26
2022-10-05T02:16:39.402Z,7.32
2022-10-05T02:17:41.847Z,7.34
2022-10-05T02:18:44.304Z,7.35
2022-10-05T02:19:46.794Z,7.35
2022-10-05T02:20:49.440Z,7.40
2022-10-05T02:21:51.926Z,7.40
2022-10-05T02:22:54.779Z,7.40
2022-10-05T02:23:57.253Z,7.42
2022-10-05T02:24:59.728Z,7.41
2022-10-05T02:26:02.477Z,7.46
2022-10-05T02:27:05.218Z,7.42
2022-10-05T02:28:07.687Z,7.37
2022-10-05T02:29:10.201Z,7.39
2022-10-05T02:30:16.475Z,7.41
2022-10-05T02:31:17.615Z,7.47
2022-10-05T02:32:20.317Z,7.45
2022-10-05T02:33:22.974Z,7.46
2022-10-05T02:34:25.432Z,7.43
2022-10-05T02:35:27.876Z,7.46
2022-10-05T02:36:30.317Z,7.44
2022-10-05T02:37:32.790Z,7.45
2022-10-05T02:38:35.271Z,7.45
2022-10-05T02:39:37.713Z,7.46
2022-10-05T02:40:40.462Z,7.50
2022-10-05T02:41:42.901Z,7.53
2022-10-05T02:42:45.505Z,7.51
2022-10-05T02:43:47.937Z,7.50
2022-10-05T02:44:50.379Z,7.54
2022-10-05T02:45:52.924Z,7.54
2022-10-05T02:46:57.432Z,7.48
2022-10-05T02:48:00.192Z,7.54
2022-10-05T02:49:02.709Z,7.57
2022-10-05T02:50:05.373Z,7.54
2022-10-05T02:51:07.835Z,7.57
2022-10-05T02:52:10.338Z,7.60
2022-10-05T02:53:12.805Z,7.63
2022-10-05T02:54:15.250Z,7.67
2022-10-05T02:55:17.700Z,7.63
2022-10-05T02:56:20.465Z,7.67
2022-10-05T02:57:22.906Z,7.67
2022-10-05T02:58:25.373Z,7.71
2022-10-05T02:59:27.823Z,7.69
2022-10-05T03:00:30.629Z,7.77
2022-10-05T03:01:33.551Z,7.83
2022-10-05T03:02:36.024Z,7.89
2022-10-05T03:03:38.512Z,7.97
2022-10-05T03:04:40.951Z,7.93
2022-10-05T03:05:43.412Z,7.92
2022-10-05T03:06:46.194Z,7.92
2022-10-05T03:07:48.924Z,7.92
2022-10-05T03:08:51.403Z,7.95
2022-10-05T03:09:57.634Z,7.96
2022-10-05T03:11:00.110Z,8.01
2022-10-05T03:12:02.561Z,8.04
2022-10-05T03:13:05.018Z,8.02
2022-10-05T03:14:07.481Z,8.02
2022-10-05T03:15:09.925Z,8.04
2022-10-05T03:16:13.704Z,8.07
2022-10-05T03:17:16.373Z,8.09
2022-10-05T03:18:18.873Z,8.10
2022-10-05T03:19:21.361Z,8.07
2022-10-05T03:20:24.005Z,8.09
2022-10-05T03:21:26.538Z,8.10
2022-10-05T03:22:28.980Z,8.11
2022-10-05T03:23:31.468Z,8.12
2022-10-05T03:24:34.004Z,8.13
2022-10-05T03:25:36.439Z,8.17
2022-10-05T03:26:39.084Z,8.15
2022-10-05T03:27:41.549Z,8.22
2022-10-05T03:28:43.974Z,8.14
2022-10-05T03:29:46.682Z,8.23
2022-10-05T03:30:49.144Z,8.21
2022-10-05T03:31:51.670Z,8.29
2022-10-05T03:32:54.103Z,8.28
2022-10-05T03:33:56.534Z,8.28
2022-10-05T03:34:58.999Z,8.32
2022-10-05T03:36:01.449Z,8.26
2022-10-05T03:37:03.890Z,8.33
2022-10-05T03:38:06.370Z,8.32
2022-10-05T03:39:08.815Z,8.27
2022-10-05T03:40:11.691Z,8.29
2022-10-05T03:41:14.227Z,8.35
2022-10-05T03:42:16.985Z,8.32
2022-10-05T03:43:19.423Z,8.35
2022-10-05T03:44:21.874Z,8.35
2022-10-05T03:45:24.390Z,8.33
2022-10-05T03:46:27.081Z,8.33
2022-10-05T03:47:29.597Z,8.32
2022-10-05T03:48:32.049Z,8.31
2022-10-05T03:49:34.492Z,8.31
2022-10-05T03:50:37.169Z,8.41
2022-10-05T03:51:39.616Z,8.38
2022-10-05T03:52:42.080Z,8.46
2022-10-05T03:53:44.553Z,8.44
2022-10-05T03:54:47.011Z,8.44
2022-10-05T03:55:49.486Z,8.45
2022-10-05T03:56:52.255Z,8.47
2022-10-05T03:57:54.703Z,8.44
2022-10-05T03:58:57.157Z,8.46
2022-10-05T03:59:59.608Z,8.47
2022-10-05T04:01:02.319Z,8.47
2022-10-05T04:02:04.755Z,8.51
2022-10-05T04:03:07.193Z,8.52
2022-10-05T04:04:09.766Z,8.54
2022-10-05T04:05:12.197Z,8.55
2022-10-05T04:06:15.673Z,8.58
2022-10-05T04:07:18.121Z,8.61
2022-10-05T04:08:20.589Z,8.59
2022-10-05T04:09:23.072Z,8.57
2022-10-05T04:10:25.698Z,8.64
2022-10-05T04:11:28.162Z,8.64
2022-10-05T04:12:30.667Z,8.62
2022-10-05T04:13:33.090Z,8.62
2022-10-05T04:14:35.556Z,8.63
2022-10-05T04:15:38.037Z,8.67
2022-10-05T04:16:40.804Z,8.77
2022-10-05T04:17:43.250Z,8.75
2022-10-05T04:18:45.692Z,8.73
2022-10-05T04:19:48.127Z,8.76
2022-10-05T04:20:50.870Z,8.78
2022-10-05T04:21:53.332Z,8.78
2022-10-05T04:22:55.778Z,8.71
2022-10-05T04:23:58.238Z,8.70
2022-10-05T04:25:00.676Z,8.75
2022-10-05T04:26:03.148Z,8.81
2022-10-05T04:27:05.629Z,8.72
2022-10-05T04:28:08.140Z,8.77
2022-10-05T04:29:10.636Z,8.78
2022-10-05T04:30:13.273Z,8.79
2022-10-05T04:31:15.729Z,8.85
2022-10-05T04:32:18.557Z,8.79
2022-10-05T04:33:21.001Z,8.87
2022-10-05T04:34:23.434Z,8.83
2022-10-05T04:35:25.872Z,8.86
2022-10-05T04:36:28.734Z,8.88
2022-10-05T04:37:31.196Z,8.88
2022-10-05T04:38:33.630Z,8.87
2022-10-05T04:39:36.064Z,8.93
2022-10-05T04:40:38.843Z,8.95
2022-10-05T04:41:41.741Z,8.96
2022-10-05T04:42:44.226Z,8.97
2022-10-05T04:43:46.668Z,9.00
2022-10-05T04:44:49.112Z,8.97
2022-10-05T04:45:51.560Z,8.97
2022-10-05T04:46:54.260Z,9.01
2022-10-05T04:47:56.885Z,9.01
2022-10-05T04:48:59.464Z,9.04
2022-10-05T04:50:01.950Z,9.03
2022-10-05T04:51:04.457Z,9.06
2022-10-05T04:52:06.896Z,8.94
2022-10-05T04:53:09.364Z,9.02
2022-10-05T04:54:11.896Z,9.04
2022-10-05T04:55:14.331Z,9.04
2022-10-05T04:56:17.003Z,9.05
2022-10-05T04:57:19.439Z,9.04
2022-10-05T04:58:21.919Z,9.14
2022-10-05T04:59:24.354Z,9.18
2022-10-05T05:00:26.988Z,9.14
2022-10-05T05:01:29.428Z,9.18
2022-10-05T05:02:31.880Z,9.19
2022-10-05T05:03:34.427Z,9.16
2022-10-05T05:04:37.193Z,9.22
2022-10-05T05:05:58.675Z,9.22
2022-10-05T05:06:44.567Z,9.22
2022-10-05T05:07:47.463Z,9.24
2022-10-05T05:08:49.929Z,9.20
2022-10-05T05:09:52.359Z,9.19
2022-10-05T05:10:54.922Z,9.23
2022-10-05T05:11:57.360Z,9.28
2022-10-05T05:12:59.791Z,9.32
2022-10-05T05:14:02.257Z,9.33
2022-10-05T05:15:04.715Z,9.31
2022-10-05T05:16:07.710Z,9.37
2022-10-05T05:17:13.131Z,9.29
2022-10-05T05:18:14.572Z,9.34
2022-10-05T05:19:17.036Z,9.37
2022-10-05T05:20:19.871Z,9.44
2022-10-05T05:21:22.311Z,9.40
2022-10-05T05:22:24.745Z,9.39
2022-10-05T05:23:27.195Z,9.39
2022-10-05T05:24:29.697Z,9.35
2022-10-05T05:25:32.129Z,9.33
2022-10-05T05:26:38.915Z,9.33
2022-10-05T05:27:39.640Z,9.33
2022-10-05T05:28:42.139Z,9.38
2022-10-05T05:29:44.645Z,9.38
2022-10-05T05:30:47.176Z,9.42
2022-10-05T05:31:49.694Z,9.48
2022-10-05T05:32:52.168Z,9.43
2022-10-05T05:33:54.618Z,9.46
2022-10-05T05:34:57.416Z,9.47
2022-10-05T05:35:59.852Z,9.48
2022-10-05T05:37:02.299Z,9.53
2022-10-05T05:38:04.761Z,9.54
2022-10-05T05:39:07.199Z,9.52
2022-10-05T05:40:09.992Z,9.56
2022-10-05T05:41:12.459Z,9.62
2022-10-05T05:42:14.986Z,9.64
2022-10-05T05:43:17.687Z,9.72
2022-10-05T05:44:20.126Z,9.82
2022-10-05T05:45:22.620Z,9.90
2022-10-05T05:46:44.654Z,9.92
2022-10-05T05:47:29.819Z,9.98
2022-10-05T05:48:32.381Z,10.06
2022-10-05T05:49:34.832Z,10.19
2022-10-05T05:50:37.735Z,10.25
2022-10-05T05:51:40.247Z,10.35
2022-10-05T05:52:42.688Z,10.35
2022-10-05T05:53:45.227Z,10.41
2022-10-05T05:54:47.712Z,10.42
2022-10-05T05:55:50.203Z,10.48
2022-10-05T05:56:53.055Z,10.49
2022-10-05T05:57:55.549Z,10.52
2022-10-05T05:58:58.000Z,10.56
2022-10-05T06:00:00.452Z,10.58
2022-10-05T06:01:02.950Z,10.61
2022-10-05T06:02:05.475Z,10.62
2022-10-05T06:03:08.266Z,10.57
2022-10-05T06:04:11.162Z,10.52
2022-10-05T06:05:13.603Z,10.56
2022-10-05T06:06:16.182Z,10.54
2022-10-05T06:07:18.765Z,10.53
2022-10-05T06:08:21.375Z,10.55
2022-10-05T06:09:23.827Z,10.54
2022-10-05T06:10:26.497Z,10.55
2022-10-05T06:11:28.966Z,10.56
2022-10-05T06:12:31.411Z,10.58
2022-10-05T06:13:33.858Z,10.58
2022-10-05T06:14:36.381Z,10.58
2022-10-05T06:15:38.825Z,10.56
2022-10-05T06:16:41.673Z,10.54
2022-10-05T06:17:44.200Z,10.52
2022-10-05T06:18:46.638Z,10.54
2022-10-05T06:19:49.085Z,10.62
2022-10-05T06:20:51.776Z,10.66
2022-10-05T06:21:54.685Z,10.69
2022-10-05T06:22:57.115Z,10.72
2022-10-05T06:23:59.557Z,10.77
2022-10-05T06:25:02.012Z,10.81
2022-10-05T06:26:09.726Z,10.87
2022-10-05T06:27:09.052Z,10.92
2022-10-05T06:28:11.542Z,10.91
2022-10-05T06:29:14.271Z,10.90
2022-10-05T06:30:17.230Z,10.90
2022-10-05T06:31:19.717Z,10.91
2022-10-05T06:32:22.255Z,10.90
2022-10-05T06:33:24.697Z,10.92
2022-10-05T06:34:27.140Z,10.96
2022-10-05T06:35:29.586Z,11.00
2022-10-05T06:36:32.357Z,11.06
2022-10-05T06:37:35.109Z,11.17
2022-10-05T06:38:37.558Z,11.17
2022-10-05T06:39:40.019Z,11.17
2022-10-05T06:40:42.668Z,11.21
2022-10-05T06:41:45.314Z,11.27
2022-10-05T06:42:47.780Z,11.31
2022-10-05T06:43:50.485Z,11.36
2022-10-05T06:44:52.934Z,11.37
2022-10-05T06:45:55.420Z,11.42
2022-10-05T06:46:58.104Z,11.40
2022-10-05T06:48:05.136Z,11.38
2022-10-05T06:49:05.077Z,11.39
2022-10-05T06:50:07.917Z,11.48
2022-10-05T06:51:10.488Z,11.45
2022-10-05T06:52:12.948Z,11.41
2022-10-05T06:53:15.413Z,11.36
2022-10-05T06:54:17.875Z,11.43
2022-10-05T06:55:20.358Z,11.38
2022-10-05T06:56:23.083Z,11.31
2022-10-05T06:57:25.544Z,11.30
2022-10-05T06:58:30.193Z,11.30
2022-10-05T06:59:32.839Z,11.30
2022-10-05T07:00:35.500Z,11.33
2022-10-05T07:01:38.083Z,11.38
2022-10-05T07:02:40.975Z,11.45
2022-10-05T07:03:43.674Z,11.47
2022-10-05T07:04:46.154Z,11.60
2022-10-05T07:05:48.675Z,11.67
2022-10-05T07:06:51.258Z,11.75
2022-10-05T07:07:53.714Z,11.82
2022-10-05T07:08:56.188Z,11.94
2022-10-05T07:09:58.629Z,11.97
2022-10-05T07:11:01.298Z,12.08
2022-10-05T07:12:05.174Z,12.24
2022-10-05T07:13:08.093Z,12.34
2022-10-05T07:14:10.891Z,12.41
2022-10-05T07:15:13.332Z,12.57
2022-10-05T07:16:16.243Z,12.60
2022-10-05T07:17:18.747Z,12.69
2022-10-05T07:18:21.194Z,12.78
2022-10-05T07:19:24.768Z,12.86
2022-10-05T07:20:27.401Z,12.93
2022-10-05T07:21:29.839Z,12.89
2022-10-05T07:22:34.178Z,13.04
2022-10-05T07:23:36.615Z,13.08
2022-10-05T07:24:39.103Z,13.10
2022-10-05T07:25:41.554Z,13.12
2022-10-05T07:26:44.583Z,13.12
2022-10-05T07:27:50.966Z,13.17
2022-10-05T07:28:51.827Z,13.21
2022-10-05T07:29:54.592Z,13.19
2022-10-05T07:30:57.307Z,13.30
2022-10-05T07:31:59.791Z,13.25
2022-10-05T07:33:02.233Z,13.26
2022-10-05T07:34:04.673Z,13.26
2022-10-05T07:35:07.137Z,13.32
2022-10-05T07:36:10.026Z,13.38
2022-10-05T07:37:12.451Z,13.41
2022-10-05T07:38:14.993Z,13.41
2022-10-05T07:39:17.430Z,13.45
2022-10-05T07:40:20.789Z,13.47
2022-10-05T07:41:23.521Z,13.48
2022-10-05T07:42:25.961Z,13.54
2022-10-05T07:43:35.911Z,13.59
2022-10-05T07:44:32.763Z,13.60
2022-10-05T07:45:35.324Z,13.73
2022-10-05T07:46:37.911Z,13.78
2022-10-05T07:47:40.355Z,13.81
2022-10-05T07:48:42.799Z,13.98
2022-10-05T07:49:45.262Z,14.07
2022-10-05T07:50:48.058Z,14.06
2022-10-05T07:51:50.519Z,14.07
2022-10-05T07:52:53.079Z,14.04
2022-10-05T07:53:55.526Z,14.09
2022-10-05T07:54:57.975Z,14.11
2022-10-05T07:56:00.489Z,14.10
2022-10-05T07:57:02.945Z,14.07
2022-10-05T07:58:05.396Z,14.09
2022-10-05T07:59:07.843Z,14.09
2022-10-05T08:00:10.691Z,14.11
2022-10-05T08:01:13.156Z,14.10
2022-10-05T08:02:15.749Z,14.13
2022-10-05T08:03:18.523Z,14.07
2022-10-05T08:04:21.168Z,14.04
2022-10-05T08:05:23.723Z,13.97
2022-10-05T08:06:26.416Z,13.97
2022-10-05T08:07:28.906Z,13.98
2022-10-05T08:08:31.404Z,13.94
2022-10-05T08:09:33.849Z,13.89
2022-10-05T08:10:36.514Z,13.74
2022-10-05T08:11:39.034Z,13.59
2022-10-05T08:12:41.488Z,13.56
2022-10-05T08:13:43.950Z,13.47
2022-10-05T08:14:46.401Z,13.43
2022-10-05T08:15:48.881Z,13.50
2022-10-05T08:16:51.617Z,13.61
2022-10-05T08:17:54.101Z,13.70
2022-10-05T08:18:56.547Z,13.78
2022-10-05T08:19:58.987Z,13.82
2022-10-05T08:21:01.635Z,13.96
2022-10-05T08:22:04.329Z,14.07
2022-10-05T08:23:06.802Z,14.24
2022-10-05T08:24:09.253Z,14.36
2022-10-05T08:25:11.690Z,14.56
2022-10-05T08:26:14.746Z,14.67
2022-10-05T08:27:17.205Z,14.79
2022-10-05T08:28:19.788Z,14.83
2022-10-05T08:29:22.244Z,14.82
2022-10-05T08:30:25.089Z,14.83
2022-10-05T08:31:27.753Z,14.85
2022-10-05T08:32:30.453Z,14.85
2022-10-05T08:33:32.890Z,14.69
2022-10-05T08:34:35.330Z,14.65
2022-10-05T08:35:37.779Z,14.54
2022-10-05T08:36:40.489Z,14.45
2022-10-05T08:37:42.972Z,14.27
2022-10-05T08:38:45.420Z,14.16
2022-10-05T08:39:47.975Z,14.07
2022-10-05T08:40:50.573Z,14.00
2022-10-05T08:41:53.518Z,13.90
2022-10-05T08:42:56.329Z,13.85
2022-10-05T08:43:58.824Z,13.82
2022-10-05T08:45:01.267Z,13.79
2022-10-05T08:46:04.012Z,13.66
2022-10-05T08:47:06.585Z,13.64
2022-10-05T08:48:09.133Z,13.60
2022-10-05T08:49:11.604Z,13.58
2022-10-05T08:50:14.243Z,13.58
2022-10-05T08:51:16.990Z,13.63
2022-10-05T08:52:19.438Z,13.61
2022-10-05T08:53:21.916Z,13.57
2022-10-05T08:54:24.351Z,13.52
2022-10-05T08:55:26.800Z,13.54
2022-10-05T08:56:29.363Z,13.43
2022-10-05T08:57:31.815Z,13.33
2022-10-05T08:58:34.281Z,13.31
2022-10-05T08:59:36.760Z,13.33
2022-10-05T09:00:39.404Z,13.26
2022-10-05T09:01:41.865Z,13.13
2022-10-05T09:02:44.536Z,13.15
2022-10-05T09:03:47.114Z,13.07
2022-10-05T09:04:49.558Z,13.06
2022-10-05T09:05:52.000Z,13.04
2022-10-05T09:06:54.872Z,13.05
2022-10-05T09:07:57.317Z,12.98
2022-10-05T09:08:59.799Z,12.98
2022-10-05T09:10:02.564Z,12.99
2022-10-05T09:11:05.026Z,12.92
2022-10-05T09:12:07.577Z,12.87
2022-10-05T09:13:10.023Z,12.89
2022-10-05T09:14:12.494Z,12.79
2022-10-05T09:15:25.324Z,12.74
2022-10-05T09:16:19.578Z,12.71
2022-10-05T09:17:22.060Z,12.73
2022-10-05T09:18:24.502Z,12.69
2022-10-05T09:19:27.028Z,12.66
2022-10-05T09:20:29.769Z,12.64
2022-10-05T09:21:32.557Z,12.62
2022-10-05T09:22:34.996Z,12.62
2022-10-05T09:23:37.441Z,12.70
2022-10-05T09:24:42.031Z,12.71
2022-10-05T09:25:44.591Z,12.66
2022-10-05T09:26:47.340Z,12.69
2022-10-05T09:27:49.793Z,12.69
2022-10-05T09:28:52.238Z,12.65
2022-10-05T09:29:55.051Z,12.60
2022-10-05T09:30:57.769Z,12.60
2022-10-05T09:32:00.277Z,12.61
2022-10-05T09:33:02.705Z,12.62
2022-10-05T09:34:05.390Z,12.62
2022-10-05T09:35:07.872Z,12.56
2022-10-05T09:36:11.134Z,12.61
2022-10-05T09:37:13.569Z,12.64
2022-10-05T09:38:16.021Z,12.67
2022-10-05T09:39:18.466Z,12.69
2022-10-05T09:40:21.177Z,12.74
2022-10-05T09:41:23.616Z,12.75
2022-10-05T09:42:26.230Z,12.73
2022-10-05T09:43:28.690Z,12.73
2022-10-05T09:44:31.132Z,12.85
2022-10-05T09:45:34.116Z,12.99
2022-10-05T09:46:36.567Z,13.18
2022-10-05T09:47:39.099Z,13.45
2022-10-05T09:48:41.685Z,13.71
2022-10-05T09:49:44.127Z,14.06
2022-10-05T09:50:46.610Z,14.40
2022-10-05T09:51:49.555Z,14.73
2022-10-05T09:52:52.325Z,15.01
2022-10-05T09:53:54.805Z,15.31
2022-10-05T09:54:57.253Z,15.55
2022-10-05T09:55:59.708Z,15.67
2022-10-05T09:57:02.363Z,15.67
2022-10-05T09:58:04.821Z,15.79
2022-10-05T09:59:07.305Z,15.86
2022-10-05T10:00:10.132Z,15.83
2022-10-05T10:01:29.246Z,15.91
2022-10-05T10:02:17.270Z,15.99
2022-10-05T10:03:19.961Z,15.95
2022-10-05T10:04:22.494Z,15.90
2022-10-05T10:05:24.923Z,15.95
2022-10-05T10:06:27.603Z,15.93
2022-10-05T10:07:30.284Z,15.87
2022-10-05T10:08:32.716Z,15.79
2022-10-05T10:09:38.492Z,15.66
2022-10-05T10:10:39.822Z,15.61
2022-10-05T10:11:42.590Z,15.42
2022-10-05T10:12:45.166Z,15.29
2022-10-05T10:13:47.637Z,15.18
2022-10-05T10:14:50.074Z,15.10
2022-10-05T10:15:52.658Z,14.88
2022-10-05T10:16:55.542Z,14.75
2022-10-05T10:17:58.009Z,14.57
2022-10-05T10:19:00.443Z,14.50
2022-10-05T10:20:03.193Z,14.36
2022-10-05T10:21:05.636Z,14.30
2022-10-05T10:22:08.103Z,14.23
2022-10-05T10:23:10.536Z,14.18
2022-10-05T10:24:13.021Z,14.13
2022-10-05T10:25:15.508Z,14.10
2022-10-05T10:26:18.046Z,13.95
2022-10-05T10:27:20.514Z,13.91
2022-10-05T10:28:22.992Z,13.82
2022-10-05T10:30:28.451Z,13.65
2022-10-05T10:31:31.662Z,13.65
2022-10-05T10:32:34.356Z,13.58
2022-10-05T10:33:36.840Z,13.53
2022-10-05T10:34:39.277Z,13.50
2022-10-05T10:35:41.721Z,13.40
2022-10-05T10:36:44.413Z,13.33
2022-10-05T10:37:46.896Z,13.37
2022-10-05T10:38:49.335Z,13.31
2022-10-05T10:39:51.770Z,13.29
2022-10-05T10:40:54.408Z,13.20
2022-10-05T10:41:57.081Z,13.19
2022-10-05T10:42:59.554Z,13.20
2022-10-05T10:44:01.995Z,13.14
2022-10-05T10:45:04.455Z,13.06
2022-10-05T10:46:07.574Z,13.03
2022-10-05T10:47:10.280Z,12.96
2022-10-05T10:48:12.952Z,13.01
2022-10-05T10:49:15.429Z,12.94
2022-10-05T10:50:18.170Z,12.88
2022-10-05T10:51:20.668Z,12.81
2022-10-05T10:52:23.101Z,12.71
2022-10-05T10:53:25.563Z,12.68
2022-10-05T10:54:28.135Z,12.71
2022-10-05T10:55:30.594Z,12.70
2022-10-05T10:56:33.346Z,12.69
2022-10-05T10:57:35.801Z,12.66
2022-10-05T10:58:38.276Z,12.57
2022-10-05T10:59:40.716Z,12.48
2022-10-05T11:00:43.275Z,12.50
2022-10-05T11:01:46.175Z,12.57
2022-10-05T11:02:49.288Z,12.60
2022-10-05T11:03:51.981Z,12.57
2022-10-05T11:04:54.494Z,12.48
2022-10-05T11:05:56.983Z,12.52
2022-10-05T11:06:59.617Z,12.48
2022-10-05T11:08:02.062Z,12.44
2022-10-05T11:09:04.534Z,12.40
2022-10-05T11:10:07.276Z,12.41
2022-10-05T11:11:09.712Z,12.35
2022-10-05T11:12:12.176Z,12.34
2022-10-05T11:13:14.714Z,12.35
2022-10-05T11:14:17.213Z,12.38
2022-10-05T11:15:19.652Z,12.43
2022-10-05T11:16:22.126Z,12.50
2022-10-05T11:17:24.602Z,12.49
2022-10-05T11:18:27.035Z,12.51
2022-10-05T11:19:39.981Z,12.60
2022-10-05T11:20:34.060Z,12.59
2022-10-05T11:21:36.497Z,12.62
2022-10-05T11:22:38.932Z,12.65
2022-10-05T11:23:41.370Z,12.62
2022-10-05T11:24:43.849Z,12.73
2022-10-05T11:25:46.381Z,12.76
2022-10-05T11:26:49.376Z,12.82
2022-10-05T11:27:52.054Z,12.88
2022-10-05T11:28:54.731Z,12.85
2022-10-05T11:29:57.216Z,12.81
2022-10-05T11:30:59.849Z,12.81
2022-10-05T11:32:02.414Z,12.79
2022-10-05T11:33:04.845Z,12.84
2022-10-05T11:34:07.283Z,12.84
2022-10-05T11:35:10.042Z,12.89
2022-10-05T11:36:13.101Z,12.85
2022-10-05T11:37:15.592Z,12.81
2022-10-05T11:38:18.031Z,12.78
2022-10-05T11:39:20.473Z,12.71
2022-10-05T11:40:23.242Z,12.74
2022-10-05T11:41:25.690Z,12.70
2022-10-05T11:42:28.128Z,12.66
2022-10-05T11:43:30.592Z,12.65
2022-10-05T11:44:33.028Z,12.58
2022-10-05T11:45:35.521Z,12.50
2022-10-05T11:46:38.456Z,12.48
2022-10-05T11:47:40.920Z,12.50
2022-10-05T11:48:43.366Z,12.44
2022-10-05T11:49:45.815Z,12.40
2022-10-05T11:50:48.808Z,12.41
2022-10-05T11:51:51.703Z,12.32
2022-10-05T11:52:54.662Z,12.27
2022-10-05T11:53:57.134Z,12.21
2022-10-05T11:55:10.448Z,12.22
2022-10-05T11:56:04.260Z,12.25
2022-10-05T11:57:06.694Z,12.28
2022-10-05T11:58:09.161Z,12.28
2022-10-05T11:59:11.623Z,12.30
2022-10-05T12:00:14.566Z,12.34
2022-10-05T12:01:17.755Z,12.36
2022-10-05T12:02:20.822Z,12.33
2022-10-05T12:03:23.348Z,12.34
2022-10-05T12:04:25.811Z,12.35
2022-10-05T12:05:28.280Z,12.34
2022-10-05T12:06:30.846Z,12.34
2022-10-05T12:07:33.300Z,12.31
2022-10-05T12:08:35.741Z,12.33
2022-10-05T12:09:38.178Z,12.32
2022-10-05T12:10:40.918Z,12.38
2022-10-05T12:11:43.408Z,12.40
2022-10-05T12:12:45.838Z,12.39
2022-10-05T12:13:48.279Z,12.38
2022-10-05T12:14:50.725Z,12.33
2022-10-05T12:15:53.203Z,12.39
2022-10-05T12:16:56.062Z,12.36
2022-10-05T12:17:58.535Z,12.31
2022-10-05T12:19:01.025Z,12.29
2022-10-05T12:20:03.775Z,12.25
2022-10-05T12:21:06.352Z,12.27
2022-10-05T12:22:08.817Z,12.26
2022-10-05T12:23:11.309Z,12.23
2022-10-05T12:24:13.758Z,12.25
2022-10-05T12:25:16.233Z,12.18
2022-10-05T12:26:18.773Z,12.14
2022-10-05T12:27:21.265Z,12.16
2022-10-05T12:28:23.787Z,12.11
2022-10-05T12:29:26.277Z,12.09
2022-10-05T12:30:28.820Z,12.06
2022-10-05T12:31:31.313Z,11.99
2022-10-05T12:32:33.953Z,11.95
2022-10-05T12:33:36.414Z,11.96
2022-10-05T12:34:38.885Z,11.97
2022-10-05T12:35:48.203Z,11.95
2022-10-05T12:37:03.623Z,11.97
2022-10-05T12:37:50.511Z,11.99
2022-10-05T12:38:52.961Z,12.00
2022-10-05T12:39:55.426Z,12.03
2022-10-05T12:40:58.366Z,11.99
2022-10-05T12:42:01.006Z,11.95
2022-10-05T12:43:03.628Z,11.91
2022-10-05T12:44:06.099Z,11.91
2022-10-05T12:45:08.573Z,11.90
2022-10-05T12:46:11.958Z,11.89
2022-10-05T12:47:14.433Z,11.91
2022-10-05T12:48:16.913Z,11.85
2022-10-05T12:49:19.382Z,11.86
2022-10-05T12:50:22.050Z,11.95
2022-10-05T12:51:24.480Z,11.98
2022-10-05T12:52:26.921Z,12.00
2022-10-05T12:53:29.413Z,12.02
2022-10-05T12:54:32.185Z,12.00
2022-10-05T12:55:34.658Z,11.97
2022-10-05T12:56:37.405Z,11.91
2022-10-05T12:57:39.973Z,11.91
2022-10-05T12:58:42.460Z,11.96
2022-10-05T12:59:45.030Z,11.95
2022-10-05T13:00:47.854Z,12.00
2022-10-05T13:01:50.554Z,11.97
2022-10-05T13:02:53.078Z,11.95
2022-10-05T13:03:55.604Z,11.98
2022-10-05T13:04:58.152Z,12.01
2022-10-05T13:06:02.809Z,12.11
2022-10-05T13:07:04.968Z,12.14
2022-10-05T13:08:07.919Z,12.26
2022-10-05T13:09:10.395Z,12.32
2022-10-05T13:10:13.342Z,12.25
2022-10-05T13:11:15.986Z,12.20
2022-10-05T13:12:18.432Z,12.18
2022-10-05T13:13:20.940Z,12.16
2022-10-05T13:14:23.441Z,12.15
2022-10-05T13:15:25.888Z,12.15
2022-10-05T13:16:28.486Z,12.21
2022-10-05T13:17:31.165Z,12.28
2022-10-05T13:18:33.597Z,12.30
2022-10-05T13:19:36.067Z,12.27
2022-10-05T13:20:38.880Z,12.31
2022-10-05T13:21:41.525Z,12.35
2022-10-05T13:22:43.986Z,12.36
2022-10-05T13:23:46.481Z,12.33
2022-10-05T13:24:48.942Z,12.28
2022-10-05T13:25:51.403Z,12.31
2022-10-05T13:26:54.281Z,12.26
2022-10-05T13:27:56.882Z,12.20
2022-10-05T13:28:59.671Z,12.20
2022-10-05T13:30:02.212Z,12.22
2022-10-05T13:31:04.752Z,12.22
2022-10-05T13:32:07.527Z,12.24
2022-10-05T13:33:09.982Z,12.25
2022-10-05T13:34:12.466Z,12.30
2022-10-05T13:35:14.957Z,12.26
2022-10-05T13:36:17.611Z,12.21
2022-10-05T13:37:20.041Z,12.17
2022-10-05T13:38:22.522Z,12.17